createdAt,value
2018-09-26T00:00:33.704Z,6.50
2018-09-26T00:03:08.423Z,5.78
2018-09-26T00:05:38.544Z,4.90
2018-09-26T00:08:08.556Z,5.92
2018-09-26T00:10:41.344Z,3.50
2018-09-26T00:13:12.688Z,3.27
2018-09-26T00:15:42.917Z,7.00
2018-09-26T00:18:15.608Z,5.50
2018-09-26T00:20:48.991Z,6.05
2018-09-26T00:23:23.230Z,4.12
2018-09-26T00:25:55.943Z,4.50
2018-09-26T00:28:29.921Z,7.05
2018-09-26T00:31:01.974Z,9.53
2018-09-26T00:33:34.526Z,6.65
2018-09-26T00:36:07.181Z,7.35
2018-09-26T00:38:40.832Z,6.78
2018-09-26T00:41:12.775Z,4.12
2018-09-26T00:43:43.503Z,5.83
2018-09-26T00:46:13.550Z,6.70
2018-09-26T00:48:43.810Z,5.80
2018-09-26T00:51:16.015Z,4.30
2018-09-26T00:53:46.485Z,8.30
2018-09-26T00:56:16.407Z,5.30
2018-09-26T00:58:47.819Z,5.00
2018-09-26T01:01:20.311Z,10.03
2018-09-26T01:03:53.798Z,8.28
2018-09-26T01:06:25.460Z,7.92
2018-09-26T01:08:56.039Z,11.63
2018-09-26T01:11:28.472Z,6.80
2018-09-26T01:13:58.739Z,6.87
2018-09-26T01:16:29.833Z,4.90
2018-09-26T01:19:01.486Z,5.15
2018-09-26T01:21:32.943Z,8.15
2018-09-26T01:24:03.696Z,4.67
2018-09-26T01:26:33.572Z,9.80
2018-09-26T01:29:06.356Z,4.72
2018-09-26T01:31:37.025Z,6.42
2018-09-26T01:34:07.194Z,4.35
2018-09-26T01:36:37.219Z,6.33
2018-09-26T01:39:10.932Z,4.17
2018-09-26T01:41:41.992Z,6.35
2018-09-26T01:44:11.958Z,6.35
2018-09-26T01:46:42.521Z,5.55
2018-09-26T01:49:12.638Z,7.60
2018-09-26T01:51:42.607Z,5.97
2018-09-26T01:54:13.663Z,2.72
2018-09-26T01:56:44.520Z,4.70
2018-09-26T01:59:16.110Z,7.35
2018-09-26T02:01:47.044Z,5.15
2018-09-26T02:04:17.110Z,3.25
2018-09-26T02:09:27.259Z,5.53
2018-09-26T02:11:57.442Z,6.62
2018-09-26T02:14:27.500Z,7.67
2018-09-26T02:16:57.542Z,6.45
2018-09-26T02:19:29.139Z,4.45
2018-09-26T02:22:00.787Z,7.78
2018-09-26T02:24:31.860Z,3.52
2018-09-26T02:27:02.397Z,5.65
2018-09-26T02:29:34.356Z,7.47
2018-09-26T02:32:05.217Z,6.37
2018-09-26T02:34:36.680Z,4.67
2018-09-26T02:37:10.179Z,6.83
2018-09-26T02:39:41.661Z,2.50
2018-09-26T02:42:12.621Z,2.40
2018-09-26T02:44:42.467Z,12.70
2018-09-26T02:47:15.155Z,5.67
2018-09-26T02:49:45.853Z,6.67
2018-09-26T02:52:15.331Z,5.90
2018-09-26T02:54:45.581Z,2.45
2018-09-26T02:57:15.517Z,5.20
2018-09-26T02:59:45.912Z,12.95
2018-09-26T03:02:17.631Z,6.00
2018-09-26T03:04:48.131Z,4.67
2018-09-26T03:07:17.999Z,1.70
2018-09-26T03:09:49.188Z,2.37
2018-09-26T03:12:19.452Z,5.35
2018-09-26T03:14:50.601Z,3.12
2018-09-26T03:17:22.597Z,4.58
2018-09-26T03:19:54.171Z,5.37
2018-09-26T03:22:25.306Z,5.33
2018-09-26T03:24:55.343Z,5.85
2018-09-26T03:27:25.346Z,12.47
2018-09-26T03:29:55.262Z,8.40
2018-09-26T03:32:25.280Z,8.10
2018-09-26T03:34:55.702Z,5.08
2018-09-26T03:37:25.951Z,6.50
2018-09-26T03:39:55.833Z,5.55
2018-09-26T03:42:25.916Z,4.33
2018-09-26T03:44:57.205Z,6.17
2018-09-26T03:47:27.151Z,9.48
2018-09-26T03:49:57.236Z,4.47
2018-09-26T03:55:05.982Z,3.95
2018-09-26T03:57:36.408Z,3.72
2018-09-26T04:00:08.084Z,3.65
2018-09-26T04:02:38.285Z,6.62
2018-09-26T04:05:10.861Z,4.67
2018-09-26T04:07:41.597Z,2.45
2018-09-26T04:10:12.123Z,4.37
2018-09-26T04:12:43.905Z,5.42
2018-09-26T04:15:16.455Z,4.78
2018-09-26T04:17:46.471Z,4.30
2018-09-26T04:20:17.912Z,3.95
2018-09-26T04:22:49.376Z,6.85
2018-09-26T04:25:21.341Z,6.00
2018-09-26T04:27:53.633Z,4.80
2018-09-26T04:30:24.023Z,6.03
2018-09-26T04:32:56.701Z,6.65
2018-09-26T04:35:26.647Z,6.53
2018-09-26T04:37:58.855Z,4.12
2018-09-26T04:40:29.717Z,5.25
2018-09-26T04:43:00.040Z,6.58
2018-09-26T04:45:31.342Z,4.55
2018-09-26T04:48:02.157Z,6.37
2018-09-26T04:50:34.800Z,4.65
2018-09-26T04:53:06.557Z,6.62
2018-09-26T04:55:36.678Z,5.90
2018-09-26T04:58:08.937Z,5.78
2018-09-26T05:00:38.761Z,4.90
2018-09-26T05:03:08.875Z,7.15
2018-09-26T05:05:39.850Z,5.72
2018-09-26T05:08:10.379Z,4.12
2018-09-26T05:10:40.278Z,4.80
2018-09-26T05:13:10.174Z,6.53
2018-09-26T05:15:40.840Z,7.42
2018-09-26T05:18:11.981Z,8.20
2018-09-26T05:20:43.403Z,5.37
2018-09-26T05:23:14.613Z,4.95
2018-09-26T05:25:44.721Z,8.05
2018-09-26T05:28:14.983Z,4.65
2018-09-26T05:30:46.673Z,8.98
2018-09-26T05:33:17.133Z,6.70
2018-09-26T05:35:47.423Z,7.65
2018-09-26T05:38:17.463Z,7.00
2018-09-26T05:40:48.304Z,7.58
2018-09-26T05:43:18.511Z,8.98
2018-09-26T05:45:48.414Z,8.30
2018-09-26T05:48:19.059Z,9.18
2018-09-26T05:50:49.151Z,9.30
2018-09-26T05:53:19.570Z,7.25
2018-09-26T05:55:50.218Z,11.73
2018-09-26T05:58:20.413Z,11.65
2018-09-26T06:00:50.458Z,14.28
2018-09-26T06:03:20.590Z,9.18
2018-09-26T06:05:52.120Z,12.07
2018-09-26T06:08:24.834Z,13.65
2018-09-26T06:10:59.290Z,12.82
2018-09-26T06:13:30.374Z,15.35
2018-09-26T06:16:02.629Z,13.45
2018-09-26T06:18:35.128Z,13.83
2018-09-26T06:21:06.617Z,13.22
2018-09-26T06:23:38.909Z,13.40
2018-09-26T06:26:16.026Z,14.78
2018-09-26T06:28:46.156Z,14.50
2018-09-26T06:31:16.206Z,16.45
2018-09-26T06:33:46.638Z,13.38
2018-09-26T06:36:18.035Z,15.03
2018-09-26T06:38:48.347Z,15.38
2018-09-26T06:41:18.587Z,13.10
2018-09-26T06:43:49.609Z,19.92
2018-09-26T06:46:21.370Z,12.43
2018-09-26T06:48:51.656Z,17.80
2018-09-26T06:51:27.672Z,15.70
2018-09-26T06:54:00.851Z,17.10
2018-09-26T06:56:30.931Z,15.90
2018-09-26T06:59:02.619Z,17.07
2018-09-26T07:01:33.922Z,13.72
2018-09-26T07:04:05.190Z,13.28
2018-09-26T07:06:37.239Z,14.68
2018-09-26T07:09:09.929Z,14.98
2018-09-26T07:11:40.129Z,13.40
2018-09-26T07:14:11.891Z,12.95
2018-09-26T07:19:42.963Z,13.53
2018-09-26T07:24:48.720Z,15.75
2018-09-26T07:27:19.045Z,15.20
2018-09-26T07:29:49.179Z,15.63
2018-09-26T07:32:25.058Z,11.05
2018-09-26T07:34:56.559Z,13.30
2018-09-26T07:37:29.589Z,14.80
2018-09-26T07:40:01.375Z,13.95
2018-09-26T07:42:32.918Z,13.55
2018-09-26T07:47:09.255Z,12.73
2018-09-26T07:49:40.303Z,14.33
2018-09-26T07:52:12.945Z,11.25
2018-09-26T07:54:45.862Z,12.85
2018-09-26T07:57:15.976Z,14.78
2018-09-26T07:59:50.958Z,13.38
2018-09-26T08:02:24.217Z,14.23
2018-09-26T08:05:02.226Z,9.20
2018-09-26T08:10:46.267Z,12.63
2018-09-26T08:13:17.968Z,11.03
2018-09-26T08:15:51.551Z,12.93
2018-09-26T08:18:24.115Z,13.45
2018-09-26T08:20:56.683Z,10.18
2018-09-26T08:23:30.099Z,10.95
2018-09-26T08:26:00.213Z,16.52
2018-09-26T08:28:32.429Z,11.60
2018-09-26T08:31:03.588Z,11.83
2018-09-26T08:33:33.714Z,13.22
2018-09-26T08:36:05.440Z,13.88
2018-09-26T08:38:35.714Z,15.10
2018-09-26T08:41:06.566Z,11.93
2018-09-26T08:43:41.653Z,14.45
2018-09-26T08:46:13.323Z,13.58
2018-09-26T08:48:43.830Z,11.57
2018-09-26T08:51:14.352Z,13.00
2018-09-26T08:53:45.152Z,12.98
2018-09-26T08:56:15.329Z,13.22
2018-09-26T08:58:45.841Z,12.20
2018-09-26T09:01:21.334Z,11.22
2018-09-26T09:03:52.393Z,14.65
2018-09-26T09:06:22.817Z,12.88
2018-09-26T09:08:58.973Z,11.33
2018-09-26T09:11:30.897Z,12.78
2018-09-26T09:14:01.432Z,13.38
2018-09-26T09:16:33.209Z,12.80
2018-09-26T09:19:03.279Z,10.90
2018-09-26T09:21:33.653Z,9.75
2018-09-26T09:24:04.516Z,13.75
2018-09-26T09:26:35.819Z,12.43
2018-09-26T09:29:08.848Z,13.90
2018-09-26T09:31:39.547Z,12.40
2018-09-26T09:34:15.054Z,15.18
2018-09-26T09:36:47.496Z,15.30
2018-09-26T09:39:18.585Z,15.05
2018-09-26T09:41:49.188Z,10.30
2018-09-26T09:44:20.667Z,15.23
2018-09-26T09:46:53.141Z,12.63
2018-09-26T09:49:26.029Z,11.68
2018-09-26T09:51:56.662Z,13.08
2018-09-26T09:54:28.743Z,17.82
2018-09-26T09:57:00.897Z,12.07
2018-09-26T09:59:34.289Z,8.95
2018-09-26T10:02:06.677Z,15.80
2018-09-26T10:04:37.383Z,14.70
2018-09-26T10:07:10.427Z,21.02
2018-09-26T10:09:43.426Z,14.73
2018-09-26T10:12:17.200Z,8.50
2018-09-26T10:14:47.394Z,14.20
2018-09-26T10:17:17.704Z,14.43
2018-09-26T10:19:48.034Z,11.25
2018-09-26T10:22:19.244Z,13.55
2018-09-26T10:24:51.044Z,16.85
2018-09-26T10:27:23.740Z,16.65
2018-09-26T10:30:01.044Z,16.42
2018-09-26T10:32:48.378Z,18.00
2018-09-26T10:35:25.009Z,13.78
2018-09-26T10:38:08.040Z,13.20
2018-09-26T10:40:39.167Z,13.85
2018-09-26T10:43:10.619Z,15.38
2018-09-26T10:45:41.045Z,10.63
2018-09-26T10:48:11.676Z,14.03
2018-09-26T10:50:42.724Z,14.83
2018-09-26T10:53:14.576Z,13.75
2018-09-26T10:55:45.827Z,17.92
2018-09-26T10:58:16.926Z,12.47
2018-09-26T11:00:47.556Z,14.18
2018-09-26T11:03:43.229Z,11.60
2018-09-26T11:06:13.795Z,18.60
2018-09-26T11:08:45.095Z,13.98
2018-09-26T11:11:15.318Z,17.10
2018-09-26T11:13:45.739Z,15.60
2018-09-26T11:16:20.263Z,13.55
2018-09-26T11:18:55.990Z,13.60
2018-09-26T11:21:27.779Z,13.95
2018-09-26T11:23:58.210Z,14.98
2018-09-26T11:26:28.368Z,13.80
2018-09-26T11:28:58.803Z,22.32
2018-09-26T11:31:31.580Z,18.32
2018-09-26T11:34:02.368Z,17.30
2018-09-26T11:36:33.929Z,16.48
2018-09-26T11:39:11.576Z,19.40
2018-09-26T11:41:49.169Z,12.45
2018-09-26T11:44:24.945Z,14.40
2018-09-26T11:46:55.035Z,12.63
2018-09-26T11:49:25.925Z,15.95
2018-09-26T11:51:56.753Z,15.05
2018-09-26T11:57:09.327Z,19.37
2018-09-26T11:59:49.886Z,17.95
2018-09-26T12:02:25.442Z,16.42
2018-09-26T12:05:00.991Z,14.70
2018-09-26T12:07:31.995Z,13.50
2018-09-26T12:10:04.151Z,16.02
2018-09-26T12:12:35.886Z,11.25
2018-09-26T12:15:06.796Z,15.80
2018-09-26T12:17:41.057Z,11.35
2018-09-26T12:20:20.759Z,13.75
2018-09-26T12:22:52.405Z,12.25
2018-09-26T12:25:23.278Z,14.00
2018-09-26T12:27:53.549Z,8.43
2018-09-26T12:30:24.487Z,18.37
2018-09-26T12:32:55.048Z,13.75
2018-09-26T12:35:27.732Z,16.20
2018-09-26T12:37:58.778Z,16.23
2018-09-26T12:40:30.028Z,13.00
2018-09-26T12:43:01.308Z,14.87
2018-09-26T12:45:32.637Z,15.63
2018-09-26T12:48:04.300Z,13.60
2018-09-26T12:50:35.864Z,9.93
2018-09-26T12:55:48.902Z,15.00
2018-09-26T12:58:20.005Z,12.82
2018-09-26T13:00:52.629Z,15.00
2018-09-26T13:03:24.579Z,15.03
2018-09-26T13:05:55.401Z,15.50
2018-09-26T13:08:26.534Z,11.35
2018-09-26T13:10:57.108Z,15.43
2018-09-26T13:13:26.814Z,15.10
2018-09-26T13:15:57.586Z,11.30
2018-09-26T13:18:27.500Z,9.05
2018-09-26T13:20:58.031Z,12.75
2018-09-26T13:23:28.213Z,9.85
2018-09-26T13:25:59.497Z,9.80
2018-09-26T13:28:30.292Z,14.18
2018-09-26T13:31:01.256Z,12.50
2018-09-26T13:33:33.194Z,11.35
2018-09-26T13:36:08.464Z,12.18
2018-09-26T13:38:40.365Z,16.77
2018-09-26T13:41:10.725Z,13.60
2018-09-26T13:43:51.910Z,14.95
2018-09-26T13:48:57.047Z,12.00
2018-09-26T13:51:27.984Z,12.73
2018-09-26T13:54:00.975Z,14.20
2018-09-26T13:56:33.252Z,14.45
2018-09-26T13:59:09.007Z,17.57
2018-09-26T14:01:46.443Z,13.85
2018-09-26T14:09:46.228Z,16.52
2018-09-26T14:12:18.693Z,17.52
2018-09-26T14:14:49.129Z,17.07
2018-09-26T14:17:30.340Z,19.62
2018-09-26T14:20:01.573Z,16.80
2018-09-26T14:22:33.773Z,17.05
2018-09-26T14:25:05.324Z,19.32
2018-09-26T14:27:36.283Z,14.93
2018-09-26T14:30:07.052Z,15.93
2018-09-26T14:32:37.916Z,18.73
2018-09-26T14:35:07.872Z,19.00
2018-09-26T14:37:39.161Z,17.37
2018-09-26T14:40:11.989Z,11.03
2018-09-26T14:42:44.614Z,13.40
2018-09-26T14:45:14.956Z,9.05
2018-09-26T14:47:45.213Z,17.92
2018-09-26T14:50:17.133Z,14.30
2018-09-26T14:52:47.543Z,14.43
2018-09-26T14:55:17.967Z,11.97
2018-09-26T14:57:48.764Z,17.12
2018-09-26T15:00:19.697Z,13.30
2018-09-26T15:02:52.229Z,18.35
2018-09-26T15:05:24.194Z,15.35
2018-09-26T15:07:54.339Z,16.70
2018-09-26T15:10:26.947Z,13.43
2018-09-26T15:12:57.121Z,16.35
2018-09-26T15:15:27.694Z,9.83
2018-09-26T15:17:58.541Z,13.35
2018-09-26T15:20:29.117Z,12.40
2018-09-26T15:23:01.430Z,17.32
2018-09-26T15:25:31.513Z,12.43
2018-09-26T15:28:02.670Z,13.08
2018-09-26T15:30:33.741Z,12.33
2018-09-26T15:33:04.623Z,16.48
2018-09-26T15:35:35.004Z,16.30
2018-09-26T15:38:05.837Z,9.65
2018-09-26T15:40:36.729Z,13.58
2018-09-26T15:43:07.832Z,11.40
2018-09-26T15:45:37.824Z,8.75
2018-09-26T15:48:08.859Z,10.30
2018-09-26T15:50:41.723Z,13.08
2018-09-26T15:53:12.545Z,14.58
2018-09-26T15:55:44.195Z,10.48
2018-09-26T15:58:17.854Z,13.08
2018-09-26T16:00:50.122Z,14.00
2018-09-26T16:03:21.125Z,14.28
2018-09-26T16:05:56.817Z,8.18
2018-09-26T16:08:36.421Z,13.98
2018-09-26T16:11:07.261Z,12.70
2018-09-26T16:13:40.637Z,12.30
2018-09-26T16:16:13.103Z,14.68
2018-09-26T16:18:45.089Z,12.95
2018-09-26T16:21:18.454Z,6.72
2018-09-26T16:23:49.835Z,6.60
2018-09-26T16:26:21.099Z,12.05
2018-09-26T16:28:53.228Z,16.05
2018-09-26T16:31:23.703Z,15.68
2018-09-26T16:33:55.531Z,10.65
2018-09-26T16:36:28.950Z,11.55
2018-09-26T16:39:00.283Z,8.65
2018-09-26T16:41:31.190Z,7.90
2018-09-26T16:44:05.704Z,10.05
2018-09-26T16:46:38.356Z,9.78
2018-09-26T16:49:10.487Z,9.30
2018-09-26T16:51:42.805Z,7.62
2018-09-26T16:54:12.967Z,6.15
2018-09-26T16:56:44.208Z,7.17
2018-09-26T16:59:14.857Z,11.45
2018-09-26T17:01:45.726Z,13.72
2018-09-26T17:04:17.046Z,12.40
2018-09-26T17:06:48.069Z,15.45
2018-09-26T17:09:18.668Z,12.13
2018-09-26T17:11:51.550Z,12.73
2018-09-26T17:14:21.626Z,11.55
2018-09-26T17:16:51.155Z,11.25
2018-09-26T17:19:22.246Z,20.52
2018-09-26T17:21:53.730Z,19.87
2018-09-26T17:24:25.217Z,10.35
2018-09-26T17:26:55.863Z,10.38
2018-09-26T17:29:26.749Z,19.05
2018-09-26T17:31:57.574Z,14.23
2018-09-26T17:34:29.451Z,8.50
2018-09-26T17:36:59.925Z,10.00
2018-09-26T17:39:30.843Z,14.93
2018-09-26T17:42:05.743Z,14.25
2018-09-26T17:44:37.308Z,21.23
2018-09-26T17:47:08.683Z,10.98
2018-09-26T17:49:38.709Z,14.35
2018-09-26T17:52:09.590Z,10.13
2018-09-26T17:54:39.497Z,14.68
2018-09-26T17:57:11.040Z,12.07
2018-09-26T17:59:41.843Z,16.40
2018-09-26T18:02:13.131Z,18.50
2018-09-26T18:04:43.136Z,27.15
2018-09-26T18:07:14.853Z,16.97
2018-09-26T18:09:45.887Z,28.25
2018-09-26T18:12:16.882Z,15.13
2018-09-26T18:14:47.517Z,24.12
2018-09-26T18:17:18.247Z,24.40
2018-09-26T18:19:48.824Z,22.13
2018-09-26T18:22:19.789Z,14.20
2018-09-26T18:24:49.820Z,20.25
2018-09-26T18:27:20.273Z,11.63
2018-09-26T18:29:51.683Z,17.20
2018-09-26T18:32:23.507Z,14.15
2018-09-26T18:34:54.936Z,20.92
2018-09-26T18:37:26.176Z,14.33
2018-09-26T18:39:57.003Z,22.32
2018-09-26T18:42:31.993Z,18.27
2018-09-26T18:45:02.238Z,14.18
2018-09-26T18:47:36.634Z,14.53
2018-09-26T18:50:09.061Z,18.57
2018-09-26T18:52:39.084Z,20.57
2018-09-26T18:55:10.187Z,23.27
2018-09-26T18:57:41.690Z,27.77
2018-09-26T19:00:17.163Z,19.07
2018-09-26T19:02:47.610Z,19.27
2018-09-26T19:05:18.893Z,15.35
2018-09-26T19:07:49.435Z,20.35
2018-09-26T19:10:19.889Z,23.02
2018-09-26T19:12:50.360Z,14.23
2018-09-26T19:15:21.123Z,19.02
2018-09-26T19:17:52.451Z,15.55
2018-09-26T19:20:24.409Z,18.92
2018-09-26T19:22:55.561Z,14.83
2018-09-26T19:25:25.554Z,15.98
2018-09-26T19:27:56.012Z,20.62
2018-09-26T19:30:26.069Z,13.95
2018-09-26T19:32:56.255Z,16.07
2018-09-26T19:35:29.957Z,12.43
2018-09-26T19:38:01.178Z,18.73
2018-09-26T19:40:32.718Z,10.43
2018-09-26T19:43:03.427Z,18.32
2018-09-26T19:45:35.725Z,16.42
2018-09-26T19:48:07.816Z,14.35
2018-09-26T19:50:38.653Z,16.50
2018-09-26T19:53:09.154Z,17.25
2018-09-26T19:55:42.043Z,23.27
2018-09-26T19:58:13.547Z,16.97
2018-09-26T20:00:44.760Z,16.80
2018-09-26T20:03:15.520Z,12.63
2018-09-26T20:06:00.375Z,13.43
2018-09-26T20:11:21.046Z,16.77
2018-09-26T20:14:00.448Z,14.90
2018-09-26T20:16:31.291Z,15.93
2018-09-26T20:19:06.511Z,18.37
2018-09-26T20:21:51.712Z,16.55
2018-09-26T20:24:29.177Z,17.45
2018-09-26T20:27:04.383Z,17.37
2018-09-26T20:35:55.214Z,11.53
2018-09-26T20:38:28.940Z,17.57
2018-09-26T20:41:11.561Z,16.87
2018-09-26T20:43:50.153Z,23.73
2018-09-26T20:46:26.731Z,18.30
2018-09-26T20:48:57.904Z,23.65
2018-09-26T20:51:28.842Z,22.10
2018-09-26T20:53:59.006Z,23.22
2018-09-26T20:56:29.173Z,23.05
2018-09-26T20:58:59.906Z,21.02
2018-09-26T21:01:29.887Z,21.62
2018-09-26T21:03:59.941Z,17.57
2018-09-26T21:06:31.304Z,21.68
2018-09-26T21:09:02.083Z,23.42
2018-09-26T21:11:32.034Z,24.05
2018-09-26T21:14:05.287Z,22.73
2018-09-26T21:16:35.632Z,18.17
2018-09-26T21:19:06.963Z,18.85
2018-09-26T21:21:38.420Z,18.77
2018-09-26T21:24:08.636Z,19.85
2018-09-26T21:26:38.999Z,21.90
2018-09-26T21:29:11.649Z,22.37
2018-09-26T21:31:41.684Z,21.55
2018-09-26T21:34:14.263Z,18.45
2018-09-26T21:36:44.319Z,16.87
2018-09-26T21:39:16.907Z,21.33
2018-09-26T21:41:47.071Z,18.57
2018-09-26T21:44:16.959Z,21.57
2018-09-26T21:46:49.148Z,18.70
2018-09-26T21:49:19.147Z,12.53
2018-09-26T21:51:50.096Z,14.75
2018-09-26T21:54:20.383Z,15.38
2018-09-26T21:56:53.575Z,22.40
2018-09-26T21:59:23.630Z,17.82
2018-09-26T22:01:53.846Z,13.95
2018-09-26T22:04:30.565Z,17.57
2018-09-26T22:07:00.731Z,15.75
2018-09-26T22:09:31.019Z,14.55
2018-09-26T22:12:00.871Z,15.68
2018-09-26T22:14:31.821Z,12.65
2018-09-26T22:17:03.228Z,18.05
2018-09-26T22:19:35.029Z,13.15
2018-09-26T22:22:08.330Z,15.15
2018-09-26T22:24:38.380Z,13.03
2018-09-26T22:27:11.895Z,18.45
2018-09-26T22:29:43.090Z,9.78
2018-09-26T22:32:13.649Z,16.87
2018-09-26T22:34:45.216Z,12.82
2018-09-26T22:37:17.804Z,15.60
2018-09-26T22:39:48.177Z,18.95
2018-09-26T22:42:18.327Z,19.00
2018-09-26T22:44:49.699Z,13.05
2018-09-26T22:49:37.009Z,13.62
2018-09-26T22:52:07.708Z,12.05
2018-09-26T22:54:39.820Z,14.50
2018-09-26T22:57:10.041Z,7.25
2018-09-26T22:59:41.246Z,12.85
2018-09-26T23:02:13.182Z,16.05
2018-09-26T23:04:43.082Z,17.05
2018-09-26T23:07:15.039Z,6.85
2018-09-26T23:09:45.077Z,13.00
2018-09-26T23:12:15.646Z,15.48
2018-09-26T23:14:47.225Z,9.20
2018-09-26T23:17:18.800Z,16.05
2018-09-26T23:19:51.256Z,12.88
2018-09-26T23:22:23.928Z,8.58
2018-09-26T23:24:55.548Z,9.55
2018-09-26T23:27:25.160Z,14.00
2018-09-26T23:29:56.917Z,12.07
2018-09-26T23:32:27.264Z,15.05
2018-09-26T23:34:57.094Z,13.55
2018-09-26T23:37:29.263Z,16.90
2018-09-26T23:39:59.074Z,14.30
2018-09-26T23:42:28.868Z,11.97
2018-09-26T23:44:59.685Z,15.20
2018-09-26T23:47:29.737Z,10.53
2018-09-26T23:50:00.540Z,12.55
2018-09-26T23:52:30.061Z,14.43
2018-09-26T23:54:59.955Z,12.15
